sensor_id;sensor_type;location;lat;lon;timestamp;pressure;altitude;pressure_sealevel;temperature;humidity
12722;BME280;6425;50.316;8.114;2022-07-23T00:00:19;99076.47;;;22.45;61.81
12722;BME280;6425;50.316;8.114;2022-07-23T00:05:21;99060.19;;;21.85;62.41
12722;BME280;6425;50.316;8.114;2022-07-23T00:10:22;99049.22;;;21.79;63.57
12722;BME280;6425;50.316;8.114;2022-07-23T00:15:22;99056.66;;;21.16;65.90
12722;BME280;6425;50.316;8.114;2022-07-23T00:20:24;99044.69;;;19.73;69.49
12722;BME280;6425;50.316;8.114;2022-07-23T00:25:26;99058.44;;;20.30;69.24
12722;BME280;6425;50.316;8.114;2022-07-23T00:30:27;99052.06;;;19.95;69.62
12722;BME280;6425;50.316;8.114;2022-07-23T00:35:32;99038.63;;;20.58;68.04
12722;BME280;6425;50.316;8.114;2022-07-23T00:40:34;99053.91;;;20.35;67.65
12722;BME280;6425;50.316;8.114;2022-07-23T00:45:34;99034.88;;;20.19;68.42
12722;BME280;6425;50.316;8.114;2022-07-23T00:50:36;99033.22;;;20.62;67.25
12722;BME280;6425;50.316;8.114;2022-07-23T00:55:38;99046.19;;;21.43;64.83
12722;BME280;6425;50.316;8.114;2022-07-23T01:00:39;99034.94;;;21.31;64.37
12722;BME280;6425;50.316;8.114;2022-07-23T01:05:41;99045.19;;;21.47;64.35
12722;BME280;6425;50.316;8.114;2022-07-23T01:10:42;99047.53;;;20.98;64.92
12722;BME280;6425;50.316;8.114;2022-07-23T01:15:42;99062.53;;;21.06;64.46
12722;BME280;6425;50.316;8.114;2022-07-23T01:20:44;99039.97;;;19.91;68.37
12722;BME280;6425;50.316;8.114;2022-07-23T01:25:52;99055.03;;;18.62;74.61
12722;BME280;6425;50.316;8.114;2022-07-23T01:30:53;99037.00;;;19.70;70.86
12722;BME280;6425;50.316;8.114;2022-07-23T01:35:54;99065.84;;;18.50;74.24
12722;BME280;6425;50.316;8.114;2022-07-23T01:40:59;99051.69;;;18.29;76.80
12722;BME280;6425;50.316;8.114;2022-07-23T01:46:05;99063.22;;;18.22;76.03
12722;BME280;6425;50.316;8.114;2022-07-23T01:51:12;99050.66;;;18.25;77.14
12722;BME280;6425;50.316;8.114;2022-07-23T01:56:18;99047.81;;;19.23;72.96
12722;BME280;6425;50.316;8.114;2022-07-23T02:01:18;99042.75;;;20.17;69.85
12722;BME280;6425;50.316;8.114;2022-07-23T02:06:19;99032.06;;;20.63;67.70
12722;BME280;6425;50.316;8.114;2022-07-23T02:11:21;99014.44;;;19.89;67.80
12722;BME280;6425;50.316;8.114;2022-07-23T02:16:21;99020.75;;;19.46;72.69
12722;BME280;6425;50.316;8.114;2022-07-23T02:21:22;98999.06;;;19.66;70.80
12722;BME280;6425;50.316;8.114;2022-07-23T02:26:24;99020.81;;;19.72;69.93
12722;BME280;6425;50.316;8.114;2022-07-23T02:31:26;99032.25;;;19.62;70.53
12722;BME280;6425;50.316;8.114;2022-07-23T02:36:30;99039.16;;;20.08;68.08
12722;BME280;6425;50.316;8.114;2022-07-23T02:41:33;99043.72;;;20.30;66.59
12722;BME280;6425;50.316;8.114;2022-07-23T02:46:33;99053.97;;;19.51;67.49
12722;BME280;6425;50.316;8.114;2022-07-23T02:51:35;99052.72;;;20.18;67.43
12722;BME280;6425;50.316;8.114;2022-07-23T02:56:41;99052.06;;;19.69;66.84
12722;BME280;6425;50.316;8.114;2022-07-23T03:01:41;99041.94;;;19.99;66.41
12722;BME280;6425;50.316;8.114;2022-07-23T03:06:42;99054.22;;;20.42;65.73
12722;BME280;6425;50.316;8.114;2022-07-23T03:11:44;99041.41;;;20.58;64.62
12722;BME280;6425;50.316;8.114;2022-07-23T03:16:44;99047.69;;;20.38;64.78
12722;BME280;6425;50.316;8.114;2022-07-23T03:21:45;99077.94;;;20.39;65.14
12722;BME280;6425;50.316;8.114;2022-07-23T03:26:48;99070.72;;;20.56;64.57
12722;BME280;6425;50.316;8.114;2022-07-23T03:31:48;99063.84;;;20.27;64.72
12722;BME280;6425;50.316;8.114;2022-07-23T03:36:49;99079.81;;;19.61;68.17
12722;BME280;6425;50.316;8.114;2022-07-23T03:41:51;99090.19;;;20.29;66.60
12722;BME280;6425;50.316;8.114;2022-07-23T03:46:51;99068.94;;;19.99;65.90
12722;BME280;6425;50.316;8.114;2022-07-23T03:51:52;99067.16;;;19.46;68.72
12722;BME280;6425;50.316;8.114;2022-07-23T03:56:54;99057.97;;;19.37;69.06
12722;BME280;6425;50.316;8.114;2022-07-23T04:01:55;99067.91;;;18.36;72.51
12722;BME280;6425;50.316;8.114;2022-07-23T04:06:56;99079.38;;;17.43;75.63
12722;BME280;6425;50.316;8.114;2022-07-23T04:11:58;99091.91;;;17.26;77.26
12722;BME280;6425;50.316;8.114;2022-07-23T04:16:59;99094.38;;;17.14;77.90
12722;BME280;6425;50.316;8.114;2022-07-23T04:22:00;99092.19;;;17.66;76.46
12722;BME280;6425;50.316;8.114;2022-07-23T04:27:02;99101.84;;;19.09;70.60
12722;BME280;6425;50.316;8.114;2022-07-23T04:32:05;99115.91;;;19.52;69.10
12722;BME280;6425;50.316;8.114;2022-07-23T04:37:06;99088.69;;;19.89;67.35
12722;BME280;6425;50.316;8.114;2022-07-23T04:42:08;99112.50;;;18.93;70.23
12722;BME280;6425;50.316;8.114;2022-07-23T04:47:08;99108.25;;;19.58;68.30
12722;BME280;6425;50.316;8.114;2022-07-23T04:52:09;99115.06;;;20.78;66.55
12722;BME280;6425;50.316;8.114;2022-07-23T04:57:11;99115.19;;;20.90;63.64
12722;BME280;6425;50.316;8.114;2022-07-23T05:02:12;99103.09;;;20.77;64.26
12722;BME280;6425;50.316;8.114;2022-07-23T05:07:14;99117.22;;;21.66;62.53
12722;BME280;6425;50.316;8.114;2022-07-23T05:12:16;99124.53;;;21.50;62.21
12722;BME280;6425;50.316;8.114;2022-07-23T05:17:18;99129.44;;;20.02;66.15
12722;BME280;6425;50.316;8.114;2022-07-23T05:22:18;99115.38;;;20.85;65.35
12722;BME280;6425;50.316;8.114;2022-07-23T05:27:20;99116.44;;;21.87;62.24
12722;BME280;6425;50.316;8.114;2022-07-23T05:32:22;99121.38;;;22.73;58.56
12722;BME280;6425;50.316;8.114;2022-07-23T05:37:31;99100.22;;;22.31;59.74
12722;BME280;6425;50.316;8.114;2022-07-23T05:42:33;99108.59;;;22.72;60.21
12722;BME280;6425;50.316;8.114;2022-07-23T05:47:42;99117.34;;;20.15;66.89
12722;BME280;6425;50.316;8.114;2022-07-23T05:52:44;99135.91;;;18.55;74.39
12722;BME280;6425;50.316;8.114;2022-07-23T05:58:18;99140.13;;;17.53;79.07
12722;BME280;6425;50.316;8.114;2022-07-23T06:03:19;99131.59;;;17.77;77.83
12722;BME280;6425;50.316;8.114;2022-07-23T06:08:19;99141.13;;;17.29;80.52
12722;BME280;6425;50.316;8.114;2022-07-23T06:13:21;99146.38;;;18.00;79.10
12722;BME280;6425;50.316;8.114;2022-07-23T06:18:21;99161.06;;;17.73;79.02
12722;BME280;6425;50.316;8.114;2022-07-23T06:23:22;99174.78;;;17.64;79.41
12722;BME280;6425;50.316;8.114;2022-07-23T06:28:24;99171.41;;;17.67;77.98
12722;BME280;6425;50.316;8.114;2022-07-23T06:33:24;99168.47;;;18.27;75.44
12722;BME280;6425;50.316;8.114;2022-07-23T06:38:25;99163.94;;;17.82;77.65
12722;BME280;6425;50.316;8.114;2022-07-23T06:43:27;99174.84;;;19.09;73.23
12722;BME280;6425;50.316;8.114;2022-07-23T06:48:29;99172.97;;;18.73;75.20
12722;BME280;6425;50.316;8.114;2022-07-23T06:53:30;99189.59;;;18.01;74.58
12722;BME280;6425;50.316;8.114;2022-07-23T06:58:32;99194.97;;;18.70;73.32
12722;BME280;6425;50.316;8.114;2022-07-23T07:03:33;99193.84;;;18.93;70.31
12722;BME280;6425;50.316;8.114;2022-07-23T07:08:33;99194.94;;;19.68;68.27
12722;BME280;6425;50.316;8.114;2022-07-23T07:13:35;99207.03;;;19.41;67.98
12722;BME280;6425;50.316;8.114;2022-07-23T07:18:36;99208.44;;;17.99;73.47
12722;BME280;6425;50.316;8.114;2022-07-23T07:23:36;99218.16;;;18.38;71.55
12722;BME280;6425;50.316;8.114;2022-07-23T07:28:38;99228.56;;;19.36;67.04
12722;BME280;6425;50.316;8.114;2022-07-23T07:33:39;99231.84;;;19.38;65.79
12722;BME280;6425;50.316;8.114;2022-07-23T07:38:39;99227.69;;;20.46;61.97
12722;BME280;6425;50.316;8.114;2022-07-23T07:43:41;99231.09;;;22.32;55.94
12722;BME280;6425;50.316;8.114;2022-07-23T07:48:41;99242.53;;;23.56;51.99
12722;BME280;6425;50.316;8.114;2022-07-23T07:53:42;99241.56;;;22.86;53.53
12722;BME280;6425;50.316;8.114;2022-07-23T07:58:44;99242.19;;;19.68;63.04
12722;BME280;6425;50.316;8.114;2022-07-23T08:03:44;99255.72;;;20.93;59.70
12722;BME280;6425;50.316;8.114;2022-07-23T08:08:45;99250.50;;;22.49;54.15
12722;BME280;6425;50.316;8.114;2022-07-23T08:13:47;99263.72;;;20.34;55.96
12722;BME280;6425;50.316;8.114;2022-07-23T08:18:47;99259.81;;;20.03;59.22
12722;BME280;6425;50.316;8.114;2022-07-23T08:23:47;99246.91;;;22.91;52.98
12722;BME280;6425;50.316;8.114;2022-07-23T08:28:49;99250.72;;;25.40;45.75
12722;BME280;6425;50.316;8.114;2022-07-23T08:33:50;99244.38;;;23.52;48.87
12722;BME280;6425;50.316;8.114;2022-07-23T08:38:50;99265.63;;;23.77;48.47
12722;BME280;6425;50.316;8.114;2022-07-23T08:43:52;99265.59;;;22.48;51.36
12722;BME280;6425;50.316;8.114;2022-07-23T08:48:54;99259.94;;;23.86;48.49
12722;BME280;6425;50.316;8.114;2022-07-23T08:53:56;99266.03;;;21.36;53.42
12722;BME280;6425;50.316;8.114;2022-07-23T08:58:58;99265.22;;;20.92;55.86
12722;BME280;6425;50.316;8.114;2022-07-23T09:03:58;99259.16;;;22.57;52.46
12722;BME280;6425;50.316;8.114;2022-07-23T09:09:16;99266.16;;;23.25;49.88
12722;BME280;6425;50.316;8.114;2022-07-23T09:14:35;99260.81;;;22.58;51.28
12722;BME280;6425;50.316;8.114;2022-07-23T09:19:36;99265.53;;;22.57;52.74
12722;BME280;6425;50.316;8.114;2022-07-23T09:24:36;99260.81;;;21.25;55.95
12722;BME280;6425;50.316;8.114;2022-07-23T09:29:38;99261.66;;;21.82;54.25
12722;BME280;6425;50.316;8.114;2022-07-23T09:34:39;99258.69;;;22.25;53.80
12722;BME280;6425;50.316;8.114;2022-07-23T09:39:40;99252.94;;;21.83;53.92
12722;BME280;6425;50.316;8.114;2022-07-23T09:44:44;99258.47;;;22.00;53.56
12722;BME280;6425;50.316;8.114;2022-07-23T09:49:57;99262.28;;;21.96;54.49
12722;BME280;6425;50.316;8.114;2022-07-23T09:54:59;99265.41;;;21.21;54.72
12722;BME280;6425;50.316;8.114;2022-07-23T10:00:03;99274.19;;;21.67;53.53
12722;BME280;6425;50.316;8.114;2022-07-23T10:05:07;99266.72;;;22.26;51.70
12722;BME280;6425;50.316;8.114;2022-07-23T10:10:32;99275.97;;;24.10;47.05
12722;BME280;6425;50.316;8.114;2022-07-23T10:15:55;99269.41;;;23.94;47.36
12722;BME280;6425;50.316;8.114;2022-07-23T10:20:56;99275.75;;;22.83;48.59
12722;BME280;6425;50.316;8.114;2022-07-23T10:25:59;99260.75;;;22.87;49.31
12722;BME280;6425;50.316;8.114;2022-07-23T10:31:09;99256.41;;;22.98;48.88
12722;BME280;6425;50.316;8.114;2022-07-23T10:36:19;99269.28;;;22.91;48.48
12722;BME280;6425;50.316;8.114;2022-07-23T10:41:32;99253.78;;;23.14;47.51
12722;BME280;6425;50.316;8.114;2022-07-23T10:46:34;99259.41;;;23.26;45.77
12722;BME280;6425;50.316;8.114;2022-07-23T10:51:35;99249.41;;;22.92;48.62
12722;BME280;6425;50.316;8.114;2022-07-23T10:57:11;99247.88;;;22.95;47.54
12722;BME280;6425;50.316;8.114;2022-07-23T11:02:22;99249.59;;;22.37;47.65
12722;BME280;6425;50.316;8.114;2022-07-23T11:07:23;99248.69;;;24.32;44.73
12722;BME280;6425;50.316;8.114;2022-07-23T11:12:36;99248.06;;;23.11;46.43
12722;BME280;6425;50.316;8.114;2022-07-23T11:22:58;99244.69;;;23.84;44.10
12722;BME280;6425;50.316;8.114;2022-07-23T11:28:15;99243.25;;;22.48;48.93
12722;BME280;6425;50.316;8.114;2022-07-23T11:33:21;99234.66;;;23.95;45.08
12722;BME280;6425;50.316;8.114;2022-07-23T11:38:22;99242.94;;;24.03;46.06
12722;BME280;6425;50.316;8.114;2022-07-23T11:43:24;99234.06;;;23.77;44.99
12722;BME280;6425;50.316;8.114;2022-07-23T11:48:27;99224.19;;;23.92;43.24
12722;BME280;6425;50.316;8.114;2022-07-23T11:53:30;99232.94;;;24.39;42.15
12722;BME280;6425;50.316;8.114;2022-07-23T11:58:31;99227.03;;;24.81;41.37
12722;BME280;6425;50.316;8.114;2022-07-23T12:03:33;99219.69;;;25.61;39.57
12722;BME280;6425;50.316;8.114;2022-07-23T12:08:40;99224.38;;;25.28;40.23
12722;BME280;6425;50.316;8.114;2022-07-23T12:13:41;99224.41;;;24.48;41.35
12722;BME280;6425;50.316;8.114;2022-07-23T12:18:43;99211.06;;;27.26;36.03
12722;BME280;6425;50.316;8.114;2022-07-23T12:23:48;99211.88;;;24.70;42.80
12722;BME280;6425;50.316;8.114;2022-07-23T12:28:52;99208.28;;;25.25;39.69
12722;BME280;6425;50.316;8.114;2022-07-23T12:33:54;99212.56;;;25.07;38.10
12722;BME280;6425;50.316;8.114;2022-07-23T12:38:54;99218.06;;;24.51;38.64
12722;BME280;6425;50.316;8.114;2022-07-23T12:43:55;99216.31;;;24.99;38.82
12722;BME280;6425;50.316;8.114;2022-07-23T12:48:57;99212.16;;;25.81;36.14
12722;BME280;6425;50.316;8.114;2022-07-23T12:53:59;99216.72;;;24.20;39.68
12722;BME280;6425;50.316;8.114;2022-07-23T12:59:05;99215.59;;;26.21;34.59
12722;BME280;6425;50.316;8.114;2022-07-23T13:04:10;99205.81;;;25.08;37.15
12722;BME280;6425;50.316;8.114;2022-07-23T13:09:13;99219.63;;;24.36;37.14
12722;BME280;6425;50.316;8.114;2022-07-23T13:14:15;99215.59;;;26.21;35.79
12722;BME280;6425;50.316;8.114;2022-07-23T13:19:20;99220.47;;;25.61;35.71
12722;BME280;6425;50.316;8.114;2022-07-23T13:24:21;99218.03;;;26.58;34.57
12722;BME280;6425;50.316;8.114;2022-07-23T13:29:22;99214.72;;;25.86;35.69
12722;BME280;6425;50.316;8.114;2022-07-23T13:34:24;99219.44;;;27.42;33.23
12722;BME280;6425;50.316;8.114;2022-07-23T13:39:27;99210.16;;;25.97;34.91
12722;BME280;6425;50.316;8.114;2022-07-23T13:44:27;99232.88;;;25.32;35.55
12722;BME280;6425;50.316;8.114;2022-07-23T13:49:29;99206.44;;;25.93;35.71
12722;BME280;6425;50.316;8.114;2022-07-23T13:54:30;99223.84;;;25.83;36.94
12722;BME280;6425;50.316;8.114;2022-07-23T13:59:31;99206.25;;;26.68;35.72
12722;BME280;6425;50.316;8.114;2022-07-23T14:04:33;99205.06;;;24.83;38.37
12722;BME280;6425;50.316;8.114;2022-07-23T14:09:33;99204.25;;;25.55;36.75
12722;BME280;6425;50.316;8.114;2022-07-23T14:14:34;99210.22;;;26.32;35.61
12722;BME280;6425;50.316;8.114;2022-07-23T14:19:36;99203.38;;;26.49;35.50
12722;BME280;6425;50.316;8.114;2022-07-23T14:24:37;99204.22;;;27.27;33.74
12722;BME280;6425;50.316;8.114;2022-07-23T14:29:37;99208.63;;;25.24;36.88
12722;BME280;6425;50.316;8.114;2022-07-23T14:34:39;99213.97;;;26.56;34.13
12722;BME280;6425;50.316;8.114;2022-07-23T14:39:40;99214.84;;;26.95;33.22
12722;BME280;6425;50.316;8.114;2022-07-23T14:44:45;99227.06;;;26.32;33.87
12722;BME280;6425;50.316;8.114;2022-07-23T14:49:47;99218.06;;;25.91;35.06
12722;BME280;6425;50.316;8.114;2022-07-23T14:54:47;99226.53;;;25.19;35.60
12722;BME280;6425;50.316;8.114;2022-07-23T14:59:48;99223.34;;;26.79;32.85
12722;BME280;6425;50.316;8.114;2022-07-23T15:04:50;99212.84;;;26.76;32.99
12722;BME280;6425;50.316;8.114;2022-07-23T15:09:50;99216.03;;;27.98;30.57
12722;BME280;6425;50.316;8.114;2022-07-23T15:14:50;99217.94;;;26.19;32.55
12722;BME280;6425;50.316;8.114;2022-07-23T15:19:52;99209.25;;;25.93;33.50
12722;BME280;6425;50.316;8.114;2022-07-23T15:24:53;99198.69;;;27.31;31.56
12722;BME280;6425;50.316;8.114;2022-07-23T15:29:53;99211.28;;;26.79;32.99
12722;BME280;6425;50.316;8.114;2022-07-23T15:34:55;99214.19;;;26.47;32.66
12722;BME280;6425;50.316;8.114;2022-07-23T15:39:55;99205.56;;;26.20;33.12
12722;BME280;6425;50.316;8.114;2022-07-23T15:44:56;99209.53;;;26.55;32.65
12722;BME280;6425;50.316;8.114;2022-07-23T15:49:58;99204.53;;;25.97;32.52
12722;BME280;6425;50.316;8.114;2022-07-23T15:54:58;99205.97;;;26.93;31.94
12722;BME280;6425;50.316;8.114;2022-07-23T15:59:59;99209.72;;;27.62;30.01
12722;BME280;6425;50.316;8.114;2022-07-23T16:05:01;99207.47;;;26.16;32.25
12722;BME280;6425;50.316;8.114;2022-07-23T16:10:02;99208.75;;;27.51;30.12
12722;BME280;6425;50.316;8.114;2022-07-23T16:15:03;99214.31;;;27.70;29.77
12722;BME280;6425;50.316;8.114;2022-07-23T16:20:07;99210.00;;;27.15;30.22
12722;BME280;6425;50.316;8.114;2022-07-23T16:25:08;99207.28;;;27.38;29.62
12722;BME280;6425;50.316;8.114;2022-07-23T16:30:11;99208.78;;;26.38;30.90
12722;BME280;6425;50.316;8.114;2022-07-23T16:35:13;99210.66;;;27.27;31.17
12722;BME280;6425;50.316;8.114;2022-07-23T16:40:13;99207.78;;;26.31;32.36
12722;BME280;6425;50.316;8.114;2022-07-23T16:45:13;99211.38;;;26.82;31.31
12722;BME280;6425;50.316;8.114;2022-07-23T16:50:15;99207.13;;;26.37;31.57
12722;BME280;6425;50.316;8.114;2022-07-23T16:55:16;99205.66;;;25.61;32.52
12722;BME280;6425;50.316;8.114;2022-07-23T17:00:17;99211.72;;;26.81;31.09
12722;BME280;6425;50.316;8.114;2022-07-23T17:05:19;99219.28;;;26.77;31.94
12722;BME280;6425;50.316;8.114;2022-07-23T17:10:20;99215.81;;;26.48;32.33
12722;BME280;6425;50.316;8.114;2022-07-23T17:15:20;99219.41;;;26.13;32.83
12722;BME280;6425;50.316;8.114;2022-07-23T17:20:22;99205.72;;;25.20;35.26
12722;BME280;6425;50.316;8.114;2022-07-23T17:25:23;99223.28;;;26.09;33.96
12722;BME280;6425;50.316;8.114;2022-07-23T17:30:23;99225.94;;;25.86;34.35
12722;BME280;6425;50.316;8.114;2022-07-23T17:35:27;99225.28;;;25.92;34.56
12722;BME280;6425;50.316;8.114;2022-07-23T17:40:27;99223.28;;;25.17;35.99
12722;BME280;6425;50.316;8.114;2022-07-23T17:45:28;99237.47;;;25.24;35.96
12722;BME280;6425;50.316;8.114;2022-07-23T17:50:29;99239.88;;;25.38;36.27
12722;BME280;6425;50.316;8.114;2022-07-23T17:55:31;99240.50;;;25.75;35.92
12722;BME280;6425;50.316;8.114;2022-07-23T18:00:35;99248.06;;;25.59;35.45
12722;BME280;6425;50.316;8.114;2022-07-23T18:05:38;99257.63;;;24.74;36.80
12722;BME280;6425;50.316;8.114;2022-07-23T18:10:39;99250.97;;;24.79;37.10
12722;BME280;6425;50.316;8.114;2022-07-23T18:15:39;99246.69;;;24.57;37.52
12722;BME280;6425;50.316;8.114;2022-07-23T18:20:41;99237.63;;;24.88;37.33
12722;BME280;6425;50.316;8.114;2022-07-23T18:25:42;99252.09;;;24.90;37.29
12722;BME280;6425;50.316;8.114;2022-07-23T18:30:42;99256.56;;;25.47;36.45
12722;BME280;6425;50.316;8.114;2022-07-23T18:35:44;99259.03;;;25.36;36.91
12722;BME280;6425;50.316;8.114;2022-07-23T18:40:45;99272.88;;;24.89;37.75
12722;BME280;6425;50.316;8.114;2022-07-23T18:45:46;99268.72;;;24.83;37.93
12722;BME280;6425;50.316;8.114;2022-07-23T18:50:48;99269.22;;;24.48;38.87
12722;BME280;6425;50.316;8.114;2022-07-23T18:55:49;99286.94;;;24.52;38.34
12722;BME280;6425;50.316;8.114;2022-07-23T19:00:49;99281.56;;;23.65;39.47
12722;BME280;6425;50.316;8.114;2022-07-23T19:05:51;99284.47;;;24.38;38.51
12722;BME280;6425;50.316;8.114;2022-07-23T19:10:52;99282.28;;;24.32;38.73
12722;BME280;6425;50.316;8.114;2022-07-23T19:15:52;99283.19;;;25.41;36.56
12722;BME280;6425;50.316;8.114;2022-07-23T19:20:54;99292.88;;;25.71;35.97
12722;BME280;6425;50.316;8.114;2022-07-23T19:25:55;99314.06;;;25.41;36.48
12722;BME280;6425;50.316;8.114;2022-07-23T19:30:56;99318.53;;;24.16;39.00
12722;BME280;6425;50.316;8.114;2022-07-23T19:35:58;99328.25;;;24.18;39.25
12722;BME280;6425;50.316;8.114;2022-07-23T19:40:58;99332.16;;;25.03;38.09
12722;BME280;6425;50.316;8.114;2022-07-23T19:45:59;99333.16;;;25.23;38.77
12722;BME280;6425;50.316;8.114;2022-07-23T19:51:01;99340.38;;;24.84;40.02
12722;BME280;6425;50.316;8.114;2022-07-23T19:56:01;99342.00;;;24.36;40.78
12722;BME280;6425;50.316;8.114;2022-07-23T20:01:02;99338.75;;;23.88;42.08
12722;BME280;6425;50.316;8.114;2022-07-23T20:06:04;99342.13;;;23.27;43.35
12722;BME280;6425;50.316;8.114;2022-07-23T20:11:05;99339.00;;;23.50;43.19
12722;BME280;6425;50.316;8.114;2022-07-23T20:16:06;99338.25;;;23.41;43.68
12722;BME280;6425;50.316;8.114;2022-07-23T20:21:09;99345.59;;;23.24;44.13
12722;BME280;6425;50.316;8.114;2022-07-23T20:26:09;99345.03;;;22.89;45.29
12722;BME280;6425;50.316;8.114;2022-07-23T20:31:10;99337.66;;;22.55;46.00
12722;BME280;6425;50.316;8.114;2022-07-23T20:36:12;99356.91;;;22.48;46.83
12722;BME280;6425;50.316;8.114;2022-07-23T20:41:13;99356.66;;;21.76;48.14
12722;BME280;6425;50.316;8.114;2022-07-23T20:46:13;99355.53;;;21.43;48.47
12722;BME280;6425;50.316;8.114;2022-07-23T20:51:15;99359.13;;;21.69;48.30
12722;BME280;6425;50.316;8.114;2022-07-23T20:56:16;99373.69;;;21.84;48.27
12722;BME280;6425;50.316;8.114;2022-07-23T21:01:17;99359.88;;;21.87;48.03
12722;BME280;6425;50.316;8.114;2022-07-23T21:06:19;99381.94;;;21.54;48.78
12722;BME280;6425;50.316;8.114;2022-07-23T21:11:20;99388.47;;;21.23;50.04
12722;BME280;6425;50.316;8.114;2022-07-23T21:16:20;99381.13;;;20.62;51.22
12722;BME280;6425;50.316;8.114;2022-07-23T21:21:22;99377.97;;;20.46;51.59
12722;BME280;6425;50.316;8.114;2022-07-23T21:26:22;99394.16;;;20.13;52.53
12722;BME280;6425;50.316;8.114;2022-07-23T21:31:23;99398.06;;;20.03;52.72
12722;BME280;6425;50.316;8.114;2022-07-23T21:36:25;99399.16;;;20.24;52.45
12722;BME280;6425;50.316;8.114;2022-07-23T21:41:26;99408.97;;;20.30;52.52
12722;BME280;6425;50.316;8.114;2022-07-23T21:46:26;99395.03;;;19.91;52.68
12722;BME280;6425;50.316;8.114;2022-07-23T21:51:28;99401.34;;;19.83;53.24
12722;BME280;6425;50.316;8.114;2022-07-23T21:56:29;99407.88;;;20.09;53.06
12722;BME280;6425;50.316;8.114;2022-07-23T22:01:29;99421.41;;;20.24;52.66
12722;BME280;6425;50.316;8.114;2022-07-23T22:06:32;99410.94;;;19.99;53.16
12722;BME280;6425;50.316;8.114;2022-07-23T22:11:32;99417.91;;;19.88;53.30
12722;BME280;6425;50.316;8.114;2022-07-23T22:16:33;99427.72;;;20.16;53.19
12722;BME280;6425;50.316;8.114;2022-07-23T22:21:35;99434.03;;;20.30;52.89
12722;BME280;6425;50.316;8.114;2022-07-23T22:26:35;99434.63;;;20.50;52.55
12722;BME280;6425;50.316;8.114;2022-07-23T22:31:36;99434.47;;;20.24;52.94
12722;BME280;6425;50.316;8.114;2022-07-23T22:36:38;99431.53;;;19.75;54.22
12722;BME280;6425;50.316;8.114;2022-07-23T22:41:38;99429.59;;;19.98;53.78
12722;BME280;6425;50.316;8.114;2022-07-23T22:46:39;99425.63;;;19.68;53.98
12722;BME280;6425;50.316;8.114;2022-07-23T22:51:41;99432.06;;;19.77;54.55
12722;BME280;6425;50.316;8.114;2022-07-23T22:56:41;99435.53;;;19.83;54.07
12722;BME280;6425;50.316;8.114;2022-07-23T23:01:42;99434.19;;;19.58;54.65
12722;BME280;6425;50.316;8.114;2022-07-23T23:06:44;99428.81;;;19.25;55.57
12722;BME280;6425;50.316;8.114;2022-07-23T23:11:44;99424.16;;;19.35;55.26
12722;BME280;6425;50.316;8.114;2022-07-23T23:16:44;99414.56;;;19.41;55.28
12722;BME280;6425;50.316;8.114;2022-07-23T23:21:46;99427.97;;;19.39;55.46
12722;BME280;6425;50.316;8.114;2022-07-23T23:26:47;99430.22;;;19.37;55.34
12722;BME280;6425;50.316;8.114;2022-07-23T23:31:48;99434.13;;;19.36;55.69
12722;BME280;6425;50.316;8.114;2022-07-23T23:36:49;99427.56;;;19.32;55.50
12722;BME280;6425;50.316;8.114;2022-07-23T23:41:51;99428.06;;;18.84;56.56
12722;BME280;6425;50.316;8.114;2022-07-23T23:46:51;99419.09;;;18.59;57.14
12722;BME280;6425;50.316;8.114;2022-07-23T23:51:53;99422.78;;;18.54;57.15
12722;BME280;6425;50.316;8.114;2022-07-23T23:56:54;99418.16;;;18.22;58.46
